createdAt,value
2023-11-10T00:02:58.335Z,99929.40
2023-11-10T00:13:00.172Z,99919.45
2023-11-10T00:23:02.099Z,99909.91
2023-11-10T00:33:03.915Z,99903.06
2023-11-10T00:43:07.470Z,99892.50
2023-11-10T00:53:09.422Z,99885.66
2023-11-10T01:03:11.242Z,99878.46
2023-11-10T01:13:15.362Z,99871.37
2023-11-10T01:23:17.380Z,99857.38
2023-11-10T01:33:20.157Z,99844.16
2023-11-10T01:43:23.267Z,99831.70
2023-11-10T01:53:25.113Z,99821.35
2023-11-10T02:03:26.911Z,99818.56
2023-11-10T02:13:28.823Z,99822.39
2023-11-10T02:23:33.982Z,99819.29
2023-11-10T02:33:35.755Z,99807.55
2023-11-10T02:43:37.739Z,99792.54
2023-11-10T02:53:39.787Z,99784.80
2023-11-10T03:03:41.539Z,99774.63
2023-11-10T03:13:43.379Z,99778.73
2023-11-10T03:23:46.334Z,99775.30
2023-11-10T03:33:48.393Z,99768.59
2023-11-10T03:43:50.188Z,99757.19
2023-11-10T03:53:51.878Z,99746.05
2023-11-10T04:03:53.595Z,99747.48
2023-11-10T04:13:55.429Z,99736.27
2023-11-10T04:23:58.428Z,99726.89
2023-11-10T04:34:00.703Z,99726.21
2023-11-10T04:44:02.523Z,99709.01
2023-11-10T04:54:05.141Z,99703.77
2023-11-10T05:04:08.121Z,99704.92
2023-11-10T05:14:09.882Z,99696.77
2023-11-10T05:24:14.388Z,99703.89
2023-11-10T05:34:19.171Z,99706.04
2023-11-10T05:44:21.510Z,99702.21
2023-11-10T05:54:23.205Z,99708.30
2023-11-10T06:04:31.586Z,99719.45
2023-11-10T06:14:41.638Z,99725.60
2023-11-10T06:24:43.633Z,99727.14
2023-11-10T06:34:45.476Z,99728.23
2023-11-10T06:44:47.421Z,99733.44
2023-11-10T06:54:51.209Z,99729.48
2023-11-10T07:04:53.902Z,99731.95
2023-11-10T07:14:55.872Z,99721.21
2023-11-10T07:24:57.596Z,99712.89
2023-11-10T07:35:02.384Z,99711.17
2023-11-10T07:45:05.300Z,99707.95
2023-11-10T07:55:08.399Z,99701.56
2023-11-10T08:05:10.577Z,99698.27
2023-11-10T08:15:12.671Z,99693.11
2023-11-10T08:25:14.455Z,99688.43
2023-11-10T08:35:16.333Z,99696.34
2023-11-10T08:45:18.726Z,99699.73
2023-11-10T08:55:22.615Z,99706.77
2023-11-10T09:05:24.462Z,99707.66
2023-11-10T09:15:26.399Z,99713.86
2023-11-10T09:25:28.877Z,99711.28
2023-11-10T09:35:30.610Z,99703.63
2023-11-10T09:45:34.182Z,99693.60
2023-11-10T09:55:36.733Z,99677.91
2023-11-10T10:05:38.607Z,99671.58
2023-11-10T10:15:40.396Z,99657.27
2023-11-10T10:25:42.256Z,99646.52
2023-11-10T10:35:45.119Z,99636.17
2023-11-10T10:45:48.298Z,99637.41
2023-11-10T10:55:54.903Z,99625.92
2023-11-10T11:06:41.456Z,99607.92
2023-11-10T11:17:10.748Z,99597.15
2023-11-10T11:27:25.581Z,99583.89
2023-11-10T11:37:34.980Z,99577.87
2023-11-10T11:47:36.784Z,99568.59
2023-11-10T11:57:38.739Z,99555.41
2023-11-10T12:07:44.378Z,99563.52
2023-11-10T12:17:46.497Z,99563.98
2023-11-10T12:27:48.597Z,99554.11
2023-11-10T12:37:56.967Z,99556.76
2023-11-10T12:48:05.985Z,99547.45
2023-11-10T12:58:10.317Z,99540.66
2023-11-10T13:08:12.915Z,99538.77
2023-11-10T13:18:14.715Z,99544.73
2023-11-10T13:28:16.771Z,99548.43
2023-11-10T13:38:18.568Z,99543.30
2023-11-10T13:48:20.985Z,99540.05
2023-11-10T13:58:23.274Z,99534.20
2023-11-10T14:08:24.994Z,99539.27
2023-11-10T14:18:27.733Z,99541.27
2023-11-10T14:28:30.090Z,99543.41
2023-11-10T14:38:41.521Z,99538.13
2023-11-10T14:48:51.460Z,99530.28
2023-11-10T14:58:53.537Z,99525.06
2023-11-10T15:08:55.224Z,99519.89
2023-11-10T15:18:57.093Z,99522.92
2023-11-10T15:28:59.536Z,99528.36
2023-11-10T15:39:09.953Z,99533.09
2023-11-10T15:49:16.991Z,99528.23
2023-11-10T15:59:19.748Z,99524.42
2023-11-10T16:09:24.691Z,99519.23
2023-11-10T16:19:26.987Z,99513.91
2023-11-10T16:29:28.681Z,99514.85
2023-11-10T16:39:30.506Z,99515.92
2023-11-10T16:49:32.243Z,99521.41
2023-11-10T16:59:34.551Z,99518.88
2023-11-10T17:09:36.870Z,99523.28
2023-11-10T17:19:38.688Z,99522.06
2023-11-10T17:29:40.508Z,99522.08
2023-11-10T17:39:42.277Z,99519.79
2023-11-10T17:49:44.179Z,99518.53
2023-11-10T17:59:47.504Z,99515.40
2023-11-10T18:09:50.407Z,99522.97
2023-11-10T18:19:52.338Z,99523.11
2023-11-10T18:29:54.421Z,99516.56
2023-11-10T18:39:57.254Z,99510.16
2023-11-10T18:49:59.623Z,99505.34
2023-11-10T19:00:01.337Z,99501.84
2023-11-10T19:10:05.315Z,99495.70
2023-11-10T19:20:07.837Z,99490.11
2023-11-10T19:30:10.123Z,99484.74
2023-11-10T19:40:13.032Z,99484.92
2023-11-10T19:50:14.903Z,99478.85
2023-11-10T20:10:24.618Z,99474.80
2023-11-10T20:20:26.481Z,99468.44
2023-11-10T20:30:28.560Z,99471.54
2023-11-10T20:40:30.511Z,99464.77
2023-11-10T20:50:32.381Z,99465.40
2023-11-10T21:00:36.953Z,99447.87
2023-11-10T21:10:38.703Z,99436.56
2023-11-10T21:20:42.860Z,99437.02
2023-11-10T21:30:48.225Z,99424.81
2023-11-10T21:40:49.964Z,99421.98
2023-11-10T21:50:52.337Z,99413.33
2023-11-10T22:00:54.046Z,99409.35
2023-11-10T22:10:55.759Z,99402.33
2023-11-10T22:20:57.743Z,99399.98
2023-11-10T22:31:00.032Z,99398.11
2023-11-10T22:41:09.409Z,99392.19
2023-11-10T22:51:11.231Z,99383.19
2023-11-10T23:01:16.161Z,99381.98
2023-11-10T23:11:17.968Z,99359.63
2023-11-10T23:21:21.115Z,99360.56
2023-11-10T23:31:24.289Z,99342.48
2023-11-10T23:41:27.499Z,99332.92
2023-11-10T23:51:29.327Z,99333.14
